Time;durP1;ratioP1;P1;durP2;ratioP2;P2;SDS_P1;SDS_P2;PMS_P1;PMS_P2;Temp;Humidity;BMP_temperature;BMP_pressure;BME280_temperature;BME280_humidity;BME280_pressure;Samples;Min_cycle;Max_cycle;Signal;HPM_P1;HPM_P2
2022/09/10 00:00:09;;;;;;;;;;;;;;;18.16;100.00;99495.22;7385550;19;19953;-80
2022/09/10 00:02:36;;;;;;;;;;;;;;;18.09;100.00;99500.72;7388280;19;20372;-79
2022/09/10 00:05:02;;;;;;;;;;;;;;;18.36;100.00;99496.72;7389131;19;19921;-79
2022/09/10 00:07:30;;;;;;;;;;;;;;;18.41;100.00;99498.66;7388867;19;20357;-79
2022/09/10 00:09:56;;;;;;;;;;;;;;;18.51;100.00;99497.00;7387696;19;19926;-79
2022/09/10 00:12:22;;;;;;;;;;;;;;;18.18;100.00;99506.72;7386659;19;20455;-79
2022/09/10 00:14:50;;;;;;;;;;;;;;;18.51;100.00;99513.16;7389016;19;19918;-79
2022/09/10 00:17:16;;;;;;;;;;;;;;;18.56;100.00;99515.13;7385727;19;19915;-80
2022/09/10 00:19:42;;;;;;;;;;;;;;;18.82;100.00;99517.97;7385370;19;20356;-79
2022/09/10 00:22:09;;;;;;;;;;;;;;;18.85;100.00;99514.06;7386365;19;20002;-79
2022/09/10 00:24:35;;;;;;;;;;;;;;;18.88;100.00;99513.75;7392574;19;19930;-79
2022/09/10 00:27:01;;;;;;;;;;;;;;;19.03;100.00;99513.22;7388642;19;19918;-79
2022/09/10 00:29:27;;;;;;;;;;;;;;;19.26;100.00;99507.88;7384939;19;20726;-79
2022/09/10 00:31:53;;;;;;;;;;;;;;;19.30;100.00;99503.44;7383678;19;19941;-79
2022/09/10 00:34:19;;;;;;;;;;;;;;;19.25;100.00;99512.03;7386327;19;19942;-79
2022/09/10 00:36:45;;;;;;;;;;;;;;;19.26;100.00;99516.38;7386778;19;20702;-79
2022/09/10 00:39:13;;;;;;;;;;;;;;;19.30;100.00;99509.09;7384470;19;19915;-79
2022/09/10 00:41:40;;;;;;;;;;;;;;;19.21;100.00;99512.34;7384677;19;19943;-80
2022/09/10 00:44:26;;;;;;;;;;;;;;;19.26;100.00;99496.59;7385868;19;20397;-79
2022/09/10 00:46:53;;;;;;;;;;;;;;;19.11;100.00;99502.03;7384680;19;20360;-80
2022/09/10 00:49:20;;;;;;;;;;;;;;;19.33;100.00;99508.00;7386449;19;19995;-79
2022/09/10 00:51:47;;;;;;;;;;;;;;;19.24;100.00;99502.78;7385529;19;19922;-79
2022/09/10 00:54:13;;;;;;;;;;;;;;;19.12;100.00;99504.34;7384841;19;19946;-79
2022/09/10 00:56:39;;;;;;;;;;;;;;;19.22;100.00;99507.47;7388223;19;19923;-79
2022/09/10 00:59:08;;;;;;;;;;;;;;;19.39;100.00;99511.50;7386684;19;19926;-79
2022/09/10 01:01:35;;;;;;;;;;;;;;;19.42;100.00;99516.06;7386360;19;20256;-80
2022/09/10 01:04:02;;;;;;;;;;;;;;;19.20;100.00;99512.91;7386365;19;19986;-79
2022/09/10 01:06:29;;;;;;;;;;;;;;;19.17;100.00;99517.56;7385042;19;19941;-79
2022/09/10 01:08:55;;;;;;;;;;;;;;;19.10;100.00;99523.84;7383817;19;19922;-79
2022/09/10 01:11:25;;;;;;;;;;;;;;;19.18;100.00;99521.91;7383149;19;19970;-80
2022/09/10 01:13:54;;;;;;;;;;;;;;;19.36;100.00;99518.22;7384570;19;19952;-79
2022/09/10 01:16:35;;;;;;;;;;;;;;;19.27;100.00;99518.66;7384355;19;19922;-79
2022/09/10 01:19:37;;;;;;;;;;;;;;;19.17;100.00;99522.44;7383733;19;19937;-80
2022/09/10 01:22:21;;;;;;;;;;;;;;;19.13;100.00;99522.00;7379819;19;19965;-79
2022/09/10 01:25:05;;;;;;;;;;;;;;;19.29;100.00;99518.88;7385702;19;19927;-79
2022/09/10 01:27:35;;;;;;;;;;;;;;;19.28;100.00;99516.56;7385555;19;19936;-78
2022/09/10 01:30:08;;;;;;;;;;;;;;;19.11;100.00;99508.44;7382956;19;19922;-79
2022/09/10 01:32:55;;;;;;;;;;;;;;;18.83;100.00;99516.69;7383390;19;19926;-79
2022/09/10 01:35:31;;;;;;;;;;;;;;;18.74;100.00;99514.28;7386284;19;20369;-79
2022/09/10 01:38:00;;;;;;;;;;;;;;;18.57;100.00;99525.84;7383201;19;19919;-78
2022/09/10 01:40:29;;;;;;;;;;;;;;;18.45;100.00;99520.94;7380650;19;19915;-78
2022/09/10 01:43:00;;;;;;;;;;;;;;;18.32;100.00;99527.25;7383186;19;19946;-78
2022/09/10 01:45:28;;;;;;;;;;;;;;;18.37;100.00;99531.28;7386687;19;19923;-78
2022/09/10 01:48:06;;;;;;;;;;;;;;;18.27;100.00;99530.94;7382704;19;20333;-79
2022/09/10 01:50:44;;;;;;;;;;;;;;;18.11;100.00;99532.72;7383125;19;19918;-78
2022/09/10 01:53:18;;;;;;;;;;;;;;;17.85;100.00;99541.03;7383894;19;19922;-79
2022/09/10 01:55:55;;;;;;;;;;;;;;;17.85;100.00;99540.25;7388695;19;19919;-79
2022/09/10 01:58:34;;;;;;;;;;;;;;;17.70;100.00;99537.13;7385021;19;20622;-79
2022/09/10 02:01:12;;;;;;;;;;;;;;;17.57;100.00;99546.28;7384504;19;19930;-79
2022/09/10 02:03:39;;;;;;;;;;;;;;;17.63;100.00;99544.13;7383784;19;19926;-79
2022/09/10 02:06:08;;;;;;;;;;;;;;;17.61;100.00;99541.09;7389125;19;19963;-79
2022/09/10 02:08:37;;;;;;;;;;;;;;;17.44;100.00;99554.59;7387247;19;19929;-79
2022/09/10 02:11:08;;;;;;;;;;;;;;;17.62;100.00;99558.75;7389400;19;20637;-81
2022/09/10 02:13:38;;;;;;;;;;;;;;;17.52;100.00;99563.97;7390754;19;19919;-81
2022/09/10 02:16:25;;;;;;;;;;;;;;;17.53;100.00;99559.13;7392431;19;19926;-82
2022/09/10 02:18:51;;;;;;;;;;;;;;;17.57;100.00;99568.78;7392594;19;19951;-81
2022/09/10 02:21:18;;;;;;;;;;;;;;;17.65;100.00;99564.06;7389538;19;20344;-81
2022/09/10 02:23:45;;;;;;;;;;;;;;;17.98;100.00;99560.81;7388323;19;19923;-81
2022/09/10 02:26:13;;;;;;;;;;;;;;;18.05;100.00;99565.84;7391838;19;19927;-81
2022/09/10 02:28:42;;;;;;;;;;;;;;;18.06;100.00;99558.91;7390779;19;19918;-81
2022/09/10 02:31:08;;;;;;;;;;;;;;;17.96;100.00;99563.41;7390169;19;19930;-82
2022/09/10 02:33:34;;;;;;;;;;;;;;;17.91;100.00;99557.88;7389019;19;19922;-82
2022/09/10 02:36:01;;;;;;;;;;;;;;;17.88;100.00;99562.50;7394660;19;19915;-81
2022/09/10 02:38:29;;;;;;;;;;;;;;;17.87;100.00;99552.53;7389620;19;20348;-81
2022/09/10 02:40:58;;;;;;;;;;;;;;;17.91;100.00;99558.63;7389247;19;19921;-81
2022/09/10 02:43:27;;;;;;;;;;;;;;;17.95;100.00;99559.06;7389253;19;19978;-81
2022/09/10 02:45:56;;;;;;;;;;;;;;;18.10;100.00;99559.34;7391851;19;19911;-81
2022/09/10 02:48:25;;;;;;;;;;;;;;;18.14;100.00;99565.47;7389513;19;19918;-82
2022/09/10 02:50:55;;;;;;;;;;;;;;;18.10;100.00;99564.25;7390584;19;19929;-81
2022/09/10 02:53:21;;;;;;;;;;;;;;;18.07;100.00;99552.00;7388709;19;19922;-80
2022/09/10 02:55:53;;;;;;;;;;;;;;;18.08;100.00;99561.94;7393030;19;20722;-81
2022/09/10 02:58:19;;;;;;;;;;;;;;;18.11;100.00;99560.91;7388435;19;19922;-81
2022/09/10 03:00:45;;;;;;;;;;;;;;;18.09;100.00;99566.31;7389868;19;19919;-81
2022/09/10 03:03:12;;;;;;;;;;;;;;;18.23;100.00;99574.81;7389355;19;20342;-81
2022/09/10 03:05:38;;;;;;;;;;;;;;;18.28;100.00;99583.19;7391587;19;19974;-81
2022/09/10 03:08:04;;;;;;;;;;;;;;;18.37;100.00;99585.63;7388450;19;19982;-80
2022/09/10 03:10:30;;;;;;;;;;;;;;;18.32;100.00;99586.44;7388397;19;19927;-81
2022/09/10 03:12:56;;;;;;;;;;;;;;;18.45;100.00;99582.97;7388821;19;19915;-81
2022/09/10 03:15:24;;;;;;;;;;;;;;;18.53;100.00;99583.88;7392410;19;19919;-81
2022/09/10 03:17:50;;;;;;;;;;;;;;;18.29;100.00;99586.78;7388033;19;20361;-81
2022/09/10 03:20:17;;;;;;;;;;;;;;;18.47;100.00;99574.75;7388248;19;19911;-81
2022/09/10 03:22:44;;;;;;;;;;;;;;;18.32;100.00;99578.00;7392437;19;19922;-82
2022/09/10 03:25:13;;;;;;;;;;;;;;;18.17;100.00;99586.94;7393206;19;19926;-81
2022/09/10 03:27:39;;;;;;;;;;;;;;;18.35;100.00;99590.28;7393724;19;19919;-81
2022/09/10 03:30:07;;;;;;;;;;;;;;;18.40;100.00;99587.38;7388184;19;19915;-81
2022/09/10 03:32:33;;;;;;;;;;;;;;;18.41;100.00;99588.16;7390310;19;19919;-81
2022/09/10 03:34:59;;;;;;;;;;;;;;;18.56;100.00;99585.63;7390114;19;19935;-82
2022/09/10 03:37:25;;;;;;;;;;;;;;;18.64;100.00;99586.50;7388217;19;19947;-82
2022/09/10 03:39:52;;;;;;;;;;;;;;;18.70;100.00;99584.34;7388018;19;20017;-82
2022/09/10 03:42:18;;;;;;;;;;;;;;;19.51;100.00;99580.56;7387346;19;19919;-81
2022/09/10 03:44:44;;;;;;;;;;;;;;;21.08;100.00;99571.56;7389222;19;19923;-81
2022/09/10 03:47:11;;;;;;;;;;;;;;;18.15;100.00;99585.94;7386372;19;19941;-82
2022/09/10 03:49:38;;;;;;;;;;;;;;;22.15;100.00;99576.50;7390326;19;19923;-81
2022/09/10 03:52:05;;;;;;;;;;;;;;;22.71;100.00;99580.41;7390108;19;19938;-81
2022/09/10 03:54:36;;;;;;;;;;;;;;;23.17;100.00;99576.25;7391288;19;20341;-82
2022/09/10 03:57:02;;;;;;;;;;;;;;;23.14;100.00;99580.25;7392516;19;19914;-81
2022/09/10 03:59:30;;;;;;;;;;;;;;;23.35;100.00;99584.41;7387592;19;20283;-80
2022/09/10 04:01:59;;;;;;;;;;;;;;;23.20;100.00;99584.41;7387917;19;20353;-81
2022/09/10 04:04:25;;;;;;;;;;;;;;;23.05;100.00;99581.56;7388145;19;19911;-81
2022/09/10 04:06:52;;;;;;;;;;;;;;;22.97;100.00;99582.91;7387736;19;19923;-82
2022/09/10 04:09:18;;;;;;;;;;;;;;;23.44;100.00;99580.22;7386945;19;19929;-81
2022/09/10 04:11:44;;;;;;;;;;;;;;;23.14;100.00;99583.06;7386632;19;20334;-81
2022/09/10 04:14:10;;;;;;;;;;;;;;;23.31;100.00;99588.94;7388164;19;19926;-81
2022/09/10 04:16:39;;;;;;;;;;;;;;;23.13;100.00;99590.09;7386853;19;19918;-82
2022/09/10 04:19:07;;;;;;;;;;;;;;;22.97;100.00;99591.41;7386748;19;19923;-80
2022/09/10 04:21:34;;;;;;;;;;;;;;;22.85;100.00;99585.34;7385827;19;19919;-80
2022/09/10 04:24:00;;;;;;;;;;;;;;;19.54;100.00;99601.31;7389738;19;19942;-81
2022/09/10 04:26:27;;;;;;;;;;;;;;;18.56;100.00;99599.72;7388772;19;19926;-80
2022/09/10 04:28:54;;;;;;;;;;;;;;;18.11;100.00;99600.34;7385767;19;19935;-81
2022/09/10 04:31:20;;;;;;;;;;;;;;;18.12;100.00;99601.88;7387024;19;19945;-81
2022/09/10 04:33:47;;;;;;;;;;;;;;;17.86;100.00;99606.59;7390249;19;19986;-81
2022/09/10 04:36:16;;;;;;;;;;;;;;;18.13;100.00;99609.03;7386865;19;19918;-81
2022/09/10 04:38:42;;;;;;;;;;;;;;;19.07;100.00;99609.63;7390079;19;20001;-83
2022/09/10 04:41:14;;;;;;;;;;;;;;;21.39;100.00;99594.44;7389544;19;20564;-82
2022/09/10 04:43:40;;;;;;;;;;;;;;;22.12;100.00;99611.66;7390835;19;20015;-82
2022/09/10 04:46:06;;;;;;;;;;;;;;;22.18;100.00;99603.75;7391392;19;19934;-79
2022/09/10 04:48:35;;;;;;;;;;;;;;;21.22;100.00;99605.47;7384533;19;20585;-79
2022/09/10 04:51:01;;;;;;;;;;;;;;;19.60;100.00;99610.44;7387533;19;19946;-79
2022/09/10 04:53:27;;;;;;;;;;;;;;;19.17;100.00;99612.78;7386098;19;19946;-79
2022/09/10 04:55:54;;;;;;;;;;;;;;;19.03;100.00;99626.13;7387507;19;20637;-79
2022/09/10 04:58:21;;;;;;;;;;;;;;;19.02;100.00;99627.41;7387943;19;20022;-79
2022/09/10 05:00:48;;;;;;;;;;;;;;;19.08;100.00;99633.72;7388103;19;19923;-79
2022/09/10 05:03:16;;;;;;;;;;;;;;;19.33;100.00;99637.13;7386023;19;19922;-91
2022/09/10 05:05:45;;;;;;;;;;;;;;;19.46;100.00;99640.78;7398949;19;19911;-93
2022/09/10 05:08:12;;;;;;;;;;;;;;;19.72;100.00;99645.66;7392494;19;19972;-92
2022/09/10 05:10:39;;;;;;;;;;;;;;;19.29;100.00;99648.00;7388916;19;19919;-79
2022/09/10 05:13:06;;;;;;;;;;;;;;;19.46;100.00;99654.91;7384856;19;19915;-79
2022/09/10 05:15:34;;;;;;;;;;;;;;;19.63;100.00;99652.50;7386399;19;19923;-79
2022/09/10 05:18:01;;;;;;;;;;;;;;;19.00;100.00;99654.66;7382639;19;19929;-78
2022/09/10 05:20:27;;;;;;;;;;;;;;;19.42;100.00;99651.63;7384016;19;19922;-78
2022/09/10 05:22:55;;;;;;;;;;;;;;;19.63;100.00;99648.91;7384833;19;19918;-79
2022/09/10 05:25:22;;;;;;;;;;;;;;;18.30;100.00;99653.16;7386810;19;20261;-79
2022/09/10 05:27:48;;;;;;;;;;;;;;;15.24;100.00;99676.34;7383978;19;19923;-79
2022/09/10 05:30:18;;;;;;;;;;;;;;;16.38;100.00;99664.47;7384161;19;19923;-79
2022/09/10 05:32:46;;;;;;;;;;;;;;;18.13;100.00;99659.78;7383902;19;19954;-78
2022/09/10 05:35:12;;;;;;;;;;;;;;;19.09;100.00;99669.13;7386712;19;19923;-79
2022/09/10 05:37:41;;;;;;;;;;;;;;;19.33;100.00;99677.44;7385171;19;19982;-78
2022/09/10 05:40:08;;;;;;;;;;;;;;;18.82;100.00;99678.78;7388106;19;20261;-79
2022/09/10 05:42:34;;;;;;;;;;;;;;;19.27;100.00;99685.25;7394505;19;20313;-79
2022/09/10 05:45:01;;;;;;;;;;;;;;;19.40;100.00;99682.47;7395882;19;20724;-79
2022/09/10 05:47:28;;;;;;;;;;;;;;;17.68;100.00;99692.59;7395129;19;19911;-79
2022/09/10 05:49:55;;;;;;;;;;;;;;;16.84;100.00;99696.66;7393057;19;19929;-79
2022/09/10 05:52:23;;;;;;;;;;;;;;;19.11;100.00;99691.94;7393635;19;19933;-79
2022/09/10 05:54:50;;;;;;;;;;;;;;;19.33;100.00;99688.75;7392826;19;19930;-79
2022/09/10 05:57:16;;;;;;;;;;;;;;;19.65;100.00;99692.28;7392781;19;19921;-80
2022/09/10 05:59:43;;;;;;;;;;;;;;;19.92;100.00;99692.28;7389255;19;19956;-78
2022/09/10 06:02:14;;;;;;;;;;;;;;;19.88;100.00;99689.78;7390313;19;19923;-79
2022/09/10 06:04:41;;;;;;;;;;;;;;;19.91;100.00;99707.72;7391952;19;19930;-79
2022/09/10 06:07:07;;;;;;;;;;;;;;;19.95;100.00;99694.00;7389716;19;19922;-79
2022/09/10 06:09:34;;;;;;;;;;;;;;;19.52;100.00;99703.56;7388902;19;19922;-78
2022/09/10 06:12:05;;;;;;;;;;;;;;;19.77;100.00;99709.03;7389024;19;19923;-78
2022/09/10 06:14:32;;;;;;;;;;;;;;;20.01;100.00;99706.00;7393344;19;19923;-78
2022/09/10 06:16:58;;;;;;;;;;;;;;;20.24;100.00;99704.25;7389535;19;19998;-78
2022/09/10 06:19:27;;;;;;;;;;;;;;;18.13;100.00;99706.91;7391778;19;19919;-79
2022/09/10 06:21:54;;;;;;;;;;;;;;;18.47;100.00;99710.09;7389795;19;19926;-78
2022/09/10 06:24:22;;;;;;;;;;;;;;;19.44;100.00;99702.69;7392109;19;19915;-77
2022/09/10 06:26:50;;;;;;;;;;;;;;;18.96;100.00;99710.66;7392342;19;19919;-78
2022/09/10 06:29:18;;;;;;;;;;;;;;;20.40;100.00;99717.25;7392192;19;20402;-78
2022/09/10 06:31:47;;;;;;;;;;;;;;;20.80;100.00;99717.94;7389112;19;19919;-79
2022/09/10 06:34:17;;;;;;;;;;;;;;;20.63;100.00;99726.81;7391611;19;19923;-79
2022/09/10 06:36:45;;;;;;;;;;;;;;;21.25;100.00;99726.13;7389304;19;20374;-79
2022/09/10 06:39:12;;;;;;;;;;;;;;;21.08;100.00;99732.97;7389168;19;19930;-79
2022/09/10 06:41:46;;;;;;;;;;;;;;;20.48;100.00;99748.50;7389220;19;20261;-79
2022/09/10 06:44:28;;;;;;;;;;;;;;;20.24;100.00;99747.44;7390128;19;19922;-79
2022/09/10 06:47:03;;;;;;;;;;;;;;;21.22;100.00;99752.75;7388884;19;19919;-79
2022/09/10 06:49:30;;;;;;;;;;;;;;;21.63;100.00;99755.56;7389696;19;19919;-79
2022/09/10 06:51:56;;;;;;;;;;;;;;;21.55;100.00;99760.44;7389042;19;19934;-79
2022/09/10 06:54:24;;;;;;;;;;;;;;;20.33;100.00;99766.81;7387439;19;19950;-79
2022/09/10 06:56:51;;;;;;;;;;;;;;;21.33;100.00;99760.97;7390259;19;20604;-78
2022/09/10 06:59:18;;;;;;;;;;;;;;;21.46;100.00;99763.75;7387308;19;19922;-79
2022/09/10 07:01:47;;;;;;;;;;;;;;;21.60;100.00;99773.69;7388077;19;19955;-79
2022/09/10 07:04:13;;;;;;;;;;;;;;;21.51;100.00;99777.00;7388316;19;19925;-80
2022/09/10 07:06:40;;;;;;;;;;;;;;;21.82;100.00;99782.41;7388430;19;19918;-79
2022/09/10 07:09:13;;;;;;;;;;;;;;;22.08;100.00;99777.84;7390148;19;20541;-80
2022/09/10 07:11:47;;;;;;;;;;;;;;;22.07;100.00;99794.09;7388476;19;19919;-79
2022/09/10 07:14:16;;;;;;;;;;;;;;;22.03;100.00;99793.69;7389092;19;19915;-79
2022/09/10 07:16:44;;;;;;;;;;;;;;;21.36;100.00;99802.34;7387258;19;19925;-79
2022/09/10 07:19:16;;;;;;;;;;;;;;;17.73;100.00;99804.44;7389712;19;19925;-78
2022/09/10 07:21:44;;;;;;;;;;;;;;;17.03;100.00;99827.72;7388047;19;20809;-79
2022/09/10 07:24:13;;;;;;;;;;;;;;;16.70;100.00;99835.59;7391240;19;20315;-79
2022/09/10 07:26:42;;;;;;;;;;;;;;;17.49;100.00;99826.88;7390527;19;19919;-78
2022/09/10 07:29:09;;;;;;;;;;;;;;;19.99;100.00;99813.22;7387188;19;19926;-79
2022/09/10 07:31:37;;;;;;;;;;;;;;;19.68;100.00;99815.50;7387411;19;19915;-79
2022/09/10 07:34:10;;;;;;;;;;;;;;;18.43;100.00;99816.78;7386870;19;19949;-78
2022/09/10 07:36:36;;;;;;;;;;;;;;;17.66;100.00;99835.22;7387146;19;20341;-79
2022/09/10 07:39:03;;;;;;;;;;;;;;;20.77;100.00;99815.28;7387538;19;19926;-78
2022/09/10 07:41:33;;;;;;;;;;;;;;;19.58;100.00;99817.22;7386968;19;20258;-79
2022/09/10 07:44:00;;;;;;;;;;;;;;;18.74;100.00;99830.25;7387353;19;19922;-79
2022/09/10 07:46:31;;;;;;;;;;;;;;;18.07;100.00;99836.63;7391838;19;20010;-79
2022/09/10 07:48:59;;;;;;;;;;;;;;;20.12;100.00;99830.19;7387750;19;19919;-79
2022/09/10 07:51:28;;;;;;;;;;;;;;;20.70;100.00;99833.69;7393124;19;19927;-79
2022/09/10 07:53:56;;;;;;;;;;;;;;;21.61;100.00;99824.13;7385489;19;20317;-78
2022/09/10 07:56:31;;;;;;;;;;;;;;;21.81;100.00;99831.13;7386934;19;19923;-78
2022/09/10 07:58:57;;;;;;;;;;;;;;;22.00;100.00;99826.03;7390542;19;20344;-79
2022/09/10 08:01:27;;;;;;;;;;;;;;;21.03;100.00;99832.97;7386082;19;19923;-80
2022/09/10 08:03:59;;;;;;;;;;;;;;;21.32;100.00;99836.72;7387940;19;19921;-79
2022/09/10 08:06:27;;;;;;;;;;;;;;;21.77;100.00;99847.72;7387134;19;19942;-79
2022/09/10 08:08:54;;;;;;;;;;;;;;;21.83;100.00;99839.84;7386281;19;19929;-79
2022/09/10 08:11:20;;;;;;;;;;;;;;;21.92;100.00;99844.31;7384828;19;20453;-79
2022/09/10 08:13:51;;;;;;;;;;;;;;;21.78;100.00;99840.75;7386132;19;20651;-79
2022/09/10 08:16:22;;;;;;;;;;;;;;;21.78;100.00;99843.59;7386492;19;20027;-79
2022/09/10 08:18:52;;;;;;;;;;;;;;;22.08;100.00;99849.53;7386828;19;19921;-79
2022/09/10 08:21:18;;;;;;;;;;;;;;;21.11;100.00;99861.41;7388050;19;19919;-80
2022/09/10 08:23:50;;;;;;;;;;;;;;;18.36;100.00;99865.31;7390971;19;19915;-79
2022/09/10 08:26:17;;;;;;;;;;;;;;;18.09;100.00;99873.50;7390008;19;19918;-79
2022/09/10 08:28:46;;;;;;;;;;;;;;;17.72;100.00;99870.50;7386466;19;19915;-79
2022/09/10 08:31:15;;;;;;;;;;;;;;;17.43;100.00;99886.03;7384683;19;19925;-79
2022/09/10 08:33:49;;;;;;;;;;;;;;;17.34;100.00;99888.44;7385090;19;19930;-79
2022/09/10 08:36:17;;;;;;;;;;;;;;;17.62;100.00;99886.22;7385674;19;19923;-79
2022/09/10 08:38:44;;;;;;;;;;;;;;;17.94;100.00;99884.41;7385098;19;19923;-79
2022/09/10 08:41:17;;;;;;;;;;;;;;;17.42;100.00;99895.03;7384644;19;19929;-79
2022/09/10 08:43:58;;;;;;;;;;;;;;;17.64;100.00;99906.16;7385010;19;19929;-79
2022/09/10 08:46:29;;;;;;;;;;;;;;;18.51;100.00;99896.69;7385564;19;19919;-79
2022/09/10 08:49:09;;;;;;;;;;;;;;;17.82;100.00;99894.22;7385045;19;19945;-80
2022/09/10 08:51:54;;;;;;;;;;;;;;;18.14;100.00;99903.72;7384383;19;19919;-79
2022/09/10 08:54:24;;;;;;;;;;;;;;;17.91;100.00;99901.63;7385638;19;19926;-79
2022/09/10 08:56:53;;;;;;;;;;;;;;;18.02;100.00;99899.44;7387791;19;19978;-76
2022/09/10 08:59:24;;;;;;;;;;;;;;;18.06;100.00;99904.81;7384956;19;19926;-80
2022/09/10 09:01:54;;;;;;;;;;;;;;;17.95;100.00;99908.47;7385009;19;19919;-78
2022/09/10 09:04:45;;;;;;;;;;;;;;;18.81;100.00;99900.19;7385213;19;19923;-79
2022/09/10 09:07:15;;;;;;;;;;;;;;;19.97;100.00;99892.09;7383273;19;19918;-77
2022/09/10 09:09:48;;;;;;;;;;;;;;;19.78;100.00;99891.41;7383160;19;20231;-77
2022/09/10 09:12:28;;;;;;;;;;;;;;;18.60;100.00;99907.63;7384567;19;20334;-77
2022/09/10 09:15:04;;;;;;;;;;;;;;;18.72;100.00;99917.50;7387128;19;19926;-77
2022/09/10 09:17:36;;;;;;;;;;;;;;;19.25;100.00;99910.91;7383985;19;19922;-76
2022/09/10 09:20:11;;;;;;;;;;;;;;;19.21;100.00;99909.72;7383801;19;19926;-76
2022/09/10 09:23:00;;;;;;;;;;;;;;;19.91;100.00;99895.03;7385005;19;19970;-77
2022/09/10 09:25:31;;;;;;;;;;;;;;;19.26;100.00;99906.78;7383312;19;19923;-77
2022/09/10 09:27:59;;;;;;;;;;;;;;;19.67;100.00;99909.31;7383309;19;19922;-76
2022/09/10 09:30:34;;;;;;;;;;;;;;;20.19;100.00;99903.03;7381710;19;19922;-77
2022/09/10 09:33:10;;;;;;;;;;;;;;;20.96;100.00;99898.75;7383564;19;19951;-77
2022/09/10 09:35:47;;;;;;;;;;;;;;;21.14;100.00;99905.59;7386623;19;19930;-78
2022/09/10 09:38:18;;;;;;;;;;;;;;;19.93;100.00;99902.97;7383757;19;19929;-78
2022/09/10 09:40:56;;;;;;;;;;;;;;;19.33;100.00;99908.25;7383296;19;19922;-78
2022/09/10 09:43:41;;;;;;;;;;;;;;;20.06;100.00;99906.59;7382532;19;19915;-78
2022/09/10 09:46:14;;;;;;;;;;;;;;;18.84;100.00;99918.91;7382783;19;19935;-78
2022/09/10 09:48:43;;;;;;;;;;;;;;;18.81;100.00;99934.06;7382932;19;19919;-77
2022/09/10 09:51:12;;;;;;;;;;;;;;;18.30;100.00;99933.00;7383283;19;19941;-78
2022/09/10 09:53:39;;;;;;;;;;;;;;;17.85;100.00;99948.78;7382974;19;19946;-78
2022/09/10 09:56:14;;;;;;;;;;;;;;;17.74;100.00;99944.00;7386878;19;19933;-78
2022/09/10 09:58:45;;;;;;;;;;;;;;;17.71;100.00;99950.69;7383687;19;19930;-78
2022/09/10 10:01:14;;;;;;;;;;;;;;;18.00;100.00;99949.94;7384557;19;20567;-78
2022/09/10 10:03:47;;;;;;;;;;;;;;;18.63;100.00;99937.59;7385077;19;19949;-78
2022/09/10 10:06:14;;;;;;;;;;;;;;;17.71;100.00;99950.69;7385780;19;19941;-78
2022/09/10 10:08:45;;;;;;;;;;;;;;;17.68;100.00;99957.34;7382037;19;19926;-78
2022/09/10 10:11:12;;;;;;;;;;;;;;;17.79;100.00;99951.66;7383721;19;20460;-78
2022/09/10 10:13:43;;;;;;;;;;;;;;;18.42;100.00;99950.59;7382970;19;19926;-78
2022/09/10 10:16:18;;;;;;;;;;;;;;;18.81;100.00;99948.16;7386532;19;19922;-78
2022/09/10 10:18:44;;;;;;;;;;;;;;;18.42;100.00;99947.78;7381007;19;19923;-78
2022/09/10 10:21:14;;;;;;;;;;;;;;;18.55;100.00;99954.34;7380941;19;19933;-78
2022/09/10 10:23:41;;;;;;;;;;;;;;;17.78;100.00;99964.19;7383079;19;19922;-78
2022/09/10 10:26:19;;;;;;;;;;;;;;;17.65;100.00;99968.91;7388516;19;19918;-78
2022/09/10 10:28:46;;;;;;;;;;;;;;;17.76;100.00;99969.59;7386641;19;20329;-78
2022/09/10 10:31:13;;;;;;;;;;;;;;;19.10;100.00;99958.59;7391598;19;20334;-78
2022/09/10 10:33:51;;;;;;;;;;;;;;;18.96;100.00;99959.78;7392201;19;19923;-79
2022/09/10 10:36:25;;;;;;;;;;;;;;;18.59;100.00;99966.09;7392500;19;20341;-78
2022/09/10 10:38:59;;;;;;;;;;;;;;;18.53;100.00;99964.63;7391346;19;20468;-78
2022/09/10 10:41:25;;;;;;;;;;;;;;;19.17;100.00;99957.22;7388148;19;19925;-78
2022/09/10 10:44:11;;;;;;;;;;;;;;;19.07;100.00;99956.84;7387621;19;19915;-78
2022/09/10 10:46:55;;;;;;;;;;;;;;;18.72;100.00;99960.56;7390632;19;19915;-78
2022/09/10 10:49:24;;;;;;;;;;;;;;;17.79;100.00;99974.19;7390475;19;20688;-79
2022/09/10 10:51:50;;;;;;;;;;;;;;;17.46;100.00;99979.97;7388183;19;19925;-78
2022/09/10 10:54:36;;;;;;;;;;;;;;;17.70;100.00;99977.31;7391357;19;19963;-79
2022/09/10 10:57:20;;;;;;;;;;;;;;;17.66;100.00;99976.81;7389760;19;19922;-79
2022/09/10 10:59:53;;;;;;;;;;;;;;;17.51;100.00;99981.25;7387082;19;19942;-79
2022/09/10 11:02:42;;;;;;;;;;;;;;;19.06;100.00;99958.13;7389666;19;19926;-79
2022/09/10 11:05:18;;;;;;;;;;;;;;;20.00;100.00;99944.75;7391119;19;19918;-81
2022/09/10 11:07:44;;;;;;;;;;;;;;;20.31;100.00;99946.84;7389527;19;19926;-78
2022/09/10 11:10:10;;;;;;;;;;;;;;;21.20;100.00;99953.66;7389521;19;19914;-80
2022/09/10 11:12:46;;;;;;;;;;;;;;;20.24;100.00;99955.97;7393518;19;20502;-82
2022/09/10 11:15:30;;;;;;;;;;;;;;;20.32;100.00;99951.19;7395102;19;19993;-82
2022/09/10 11:18:08;;;;;;;;;;;;;;;19.51;100.00;99956.28;7390964;19;19950;-83
2022/09/10 11:20:41;;;;;;;;;;;;;;;19.89;100.00;99964.72;7391816;19;19918;-82
2022/09/10 11:23:26;;;;;;;;;;;;;;;20.37;100.00;99953.94;7392909;19;19940;-83
2022/09/10 11:26:09;;;;;;;;;;;;;;;21.61;100.00;99953.78;7395935;19;19979;-82
2022/09/10 11:28:38;;;;;;;;;;;;;;;22.14;100.00;99955.09;7389816;19;19918;-57
2022/09/10 11:31:11;;;;;;;;;;;;;;;21.17;100.00;99957.56;7392917;19;19966;-57
2022/09/10 11:33:47;;;;;;;;;;;;;;;20.83;100.00;99948.97;7391712;19;20259;-57
2022/09/10 11:36:15;;;;;;;;;;;;;;;20.63;100.00;99950.38;7395685;19;19939;-57
2022/09/10 11:38:47;;;;;;;;;;;;;;;19.88;100.00;99952.66;7388810;19;19918;-57
2022/09/10 11:41:18;;;;;;;;;;;;;;;19.78;100.00;99960.00;7388368;19;19923;-57
2022/09/10 11:43:48;;;;;;;;;;;;;;;19.86;100.00;99963.72;7388460;19;19970;-57
2022/09/10 11:46:24;;;;;;;;;;;;;;;19.87;100.00;99962.44;7386046;19;19918;-57
2022/09/10 11:49:02;;;;;;;;;;;;;;;20.25;100.00;99963.13;7390929;19;19944;-57
2022/09/10 11:51:38;;;;;;;;;;;;;;;20.58;100.00;99965.38;7395555;19;19956;-57
2022/09/10 11:54:08;;;;;;;;;;;;;;;23.24;100.00;99953.44;7391920;19;20542;-57
2022/09/10 11:56:34;;;;;;;;;;;;;;;23.95;100.00;99956.16;7390967;19;19986;-57
2022/09/10 11:59:18;;;;;;;;;;;;;;;23.31;100.00;99961.22;7389127;19;19934;-57
2022/09/10 12:01:44;;;;;;;;;;;;;;;23.69;100.00;99956.47;7391148;19;19927;-57
2022/09/10 12:04:13;;;;;;;;;;;;;;;24.77;100.00;99960.41;7391196;19;19914;-57
2022/09/10 12:06:45;;;;;;;;;;;;;;;25.22;100.00;99959.53;7392800;19;19922;-58
2022/09/10 12:09:20;;;;;;;;;;;;;;;24.51;100.00;99954.34;7389862;19;19919;-57
2022/09/10 12:12:05;;;;;;;;;;;;;;;23.94;100.00;99968.88;7393535;19;20363;-57
2022/09/10 12:14:31;;;;;;;;;;;;;;;23.62;100.00;99962.16;7391289;19;19922;-58
2022/09/10 12:17:01;;;;;;;;;;;;;;;23.62;100.00;99962.91;7393562;19;20459;-58
2022/09/10 12:19:31;;;;;;;;;;;;;;;20.78;100.00;99972.47;7390664;19;19942;-58
2022/09/10 12:22:00;;;;;;;;;;;;;;;22.05;100.00;99975.44;7389011;19;19941;-58
2022/09/10 12:24:36;;;;;;;;;;;;;;;22.13;100.00;99981.19;7394474;19;19926;-65
2022/09/10 12:27:04;;;;;;;;;;;;;;;23.10;100.00;99980.44;7393610;19;19918;-65
2022/09/10 12:29:32;;;;;;;;;;;;;;;20.42;100.00;99987.00;7389596;19;19914;-66
2022/09/10 12:32:07;;;;;;;;;;;;;;;20.71;100.00;99979.53;7389422;19;20006;-68
2022/09/10 12:34:34;;;;;;;;;;;;;;;21.14;100.00;99980.00;7391038;19;19929;-68
2022/09/10 12:37:00;;;;;;;;;;;;;;;21.77;100.00;99980.97;7391733;19;19932;-68
2022/09/10 12:39:26;;;;;;;;;;;;;;;23.59;100.00;99978.25;7390471;19;19979;-68
2022/09/10 12:41:54;;;;;;;;;;;;;;;23.35;100.00;99973.78;7389369;19;20259;-67
2022/09/10 12:44:35;;;;;;;;;;;;;;;24.34;100.00;99974.84;7393817;19;19970;-65
2022/09/10 12:47:13;;;;;;;;;;;;;;;23.04;100.00;99974.91;7393250;19;19915;-66
2022/09/10 12:49:48;;;;;;;;;;;;;;;21.23;100.00;99980.88;7389091;19;19922;-66